sensor_id;sensor_type;location;lat;lon;timestamp;P1;durP1;ratioP1;P2;durP2;ratioP2
44110;SDS011;29774;52.664;5.074;2023-09-18T00:02:24;23.27;;;19.17;;
44110;SDS011;29774;52.664;5.074;2023-09-18T00:04:50;24.98;;;18.88;;
44110;SDS011;29774;52.664;5.074;2023-09-18T00:07:17;22.92;;;18.05;;
44110;SDS011;29774;52.664;5.074;2023-09-18T00:09:42;23.15;;;17.60;;
44110;SDS011;29774;52.664;5.074;2023-09-18T00:12:08;24.50;;;17.67;;
44110;SDS011;29774;52.664;5.074;2023-09-18T00:14:35;23.52;;;18.75;;
44110;SDS011;29774;52.664;5.074;2023-09-18T00:17:01;23.65;;;16.65;;
44110;SDS011;29774;52.664;5.074;2023-09-18T00:19:27;19.90;;;16.23;;
44110;SDS011;29774;52.664;5.074;2023-09-18T00:21:53;20.52;;;16.63;;
44110;SDS011;29774;52.664;5.074;2023-09-18T00:24:19;20.58;;;16.23;;
44110;SDS011;29774;52.664;5.074;2023-09-18T00:26:46;20.42;;;15.23;;
44110;SDS011;29774;52.664;5.074;2023-09-18T00:29:13;20.70;;;16.05;;
44110;SDS011;29774;52.664;5.074;2023-09-18T00:31:38;18.70;;;15.05;;
44110;SDS011;29774;52.664;5.074;2023-09-18T00:34:04;16.23;;;13.07;;
44110;SDS011;29774;52.664;5.074;2023-09-18T00:36:30;15.13;;;13.40;;
44110;SDS011;29774;52.664;5.074;2023-09-18T00:38:55;17.08;;;12.60;;
44110;SDS011;29774;52.664;5.074;2023-09-18T00:41:21;16.17;;;13.02;;
44110;SDS011;29774;52.664;5.074;2023-09-18T00:43:46;15.05;;;12.15;;
44110;SDS011;29774;52.664;5.074;2023-09-18T00:46:12;16.27;;;13.07;;
44110;SDS011;29774;52.664;5.074;2023-09-18T00:48:38;18.10;;;13.05;;
44110;SDS011;29774;52.664;5.074;2023-09-18T00:51:04;13.98;;;11.48;;
44110;SDS011;29774;52.664;5.074;2023-09-18T00:53:29;13.43;;;12.02;;
44110;SDS011;29774;52.664;5.074;2023-09-18T00:55:57;14.50;;;11.93;;
44110;SDS011;29774;52.664;5.074;2023-09-18T00:58:23;14.23;;;11.95;;
44110;SDS011;29774;52.664;5.074;2023-09-18T01:00:50;12.93;;;11.48;;
44110;SDS011;29774;52.664;5.074;2023-09-18T01:03:16;16.40;;;12.10;;
44110;SDS011;29774;52.664;5.074;2023-09-18T01:05:44;16.05;;;12.98;;
44110;SDS011;29774;52.664;5.074;2023-09-18T01:08:10;14.10;;;11.45;;
44110;SDS011;29774;52.664;5.074;2023-09-18T01:13:51;15.02;;;12.07;;
44110;SDS011;29774;52.664;5.074;2023-09-18T01:16:49;12.65;;;11.32;;
44110;SDS011;29774;52.664;5.074;2023-09-18T01:22:08;12.60;;;11.18;;
44110;SDS011;29774;52.664;5.074;2023-09-18T01:24:35;13.88;;;11.05;;
44110;SDS011;29774;52.664;5.074;2023-09-18T01:27:02;13.90;;;11.23;;
44110;SDS011;29774;52.664;5.074;2023-09-18T01:29:32;13.95;;;11.68;;
44110;SDS011;29774;52.664;5.074;2023-09-18T01:31:57;17.40;;;11.93;;
44110;SDS011;29774;52.664;5.074;2023-09-18T01:34:33;13.27;;;10.63;;
44110;SDS011;29774;52.664;5.074;2023-09-18T01:37:04;13.95;;;11.57;;
44110;SDS011;29774;52.664;5.074;2023-09-18T01:39:33;12.50;;;10.90;;
44110;SDS011;29774;52.664;5.074;2023-09-18T01:42:00;13.35;;;11.02;;
44110;SDS011;29774;52.664;5.074;2023-09-18T01:44:29;14.15;;;10.40;;
44110;SDS011;29774;52.664;5.074;2023-09-18T01:46:57;14.13;;;11.02;;
44110;SDS011;29774;52.664;5.074;2023-09-18T01:49:31;13.90;;;10.90;;
44110;SDS011;29774;52.664;5.074;2023-09-18T01:52:01;15.25;;;10.75;;
44110;SDS011;29774;52.664;5.074;2023-09-18T01:54:31;13.63;;;10.95;;
44110;SDS011;29774;52.664;5.074;2023-09-18T01:56:58;11.88;;;10.63;;
44110;SDS011;29774;52.664;5.074;2023-09-18T01:59:24;14.55;;;10.88;;
44110;SDS011;29774;52.664;5.074;2023-09-18T02:01:50;11.48;;;9.98;;
44110;SDS011;29774;52.664;5.074;2023-09-18T02:04:17;12.00;;;10.77;;
44110;SDS011;29774;52.664;5.074;2023-09-18T02:06:43;11.85;;;10.65;;
44110;SDS011;29774;52.664;5.074;2023-09-18T02:09:09;11.68;;;9.98;;
44110;SDS011;29774;52.664;5.074;2023-09-18T02:11:40;12.63;;;10.65;;
44110;SDS011;29774;52.664;5.074;2023-09-18T02:14:08;15.77;;;11.13;;
44110;SDS011;29774;52.664;5.074;2023-09-18T02:16:35;11.30;;;10.10;;
44110;SDS011;29774;52.664;5.074;2023-09-18T02:19:12;11.88;;;10.57;;
44110;SDS011;29774;52.664;5.074;2023-09-18T02:21:39;12.18;;;10.88;;
44110;SDS011;29774;52.664;5.074;2023-09-18T02:24:05;11.60;;;10.00;;
44110;SDS011;29774;52.664;5.074;2023-09-18T02:26:31;12.30;;;10.23;;
44110;SDS011;29774;52.664;5.074;2023-09-18T02:28:58;13.30;;;10.43;;
44110;SDS011;29774;52.664;5.074;2023-09-18T02:31:25;10.88;;;8.57;;
44110;SDS011;29774;52.664;5.074;2023-09-18T02:33:51;12.27;;;10.32;;
44110;SDS011;29774;52.664;5.074;2023-09-18T02:36:16;12.00;;;9.27;;
44110;SDS011;29774;52.664;5.074;2023-09-18T02:38:42;11.65;;;9.25;;
44110;SDS011;29774;52.664;5.074;2023-09-18T02:41:08;10.73;;;9.50;;
44110;SDS011;29774;52.664;5.074;2023-09-18T02:43:34;10.50;;;9.30;;
44110;SDS011;29774;52.664;5.074;2023-09-18T02:46:02;9.90;;;8.75;;
44110;SDS011;29774;52.664;5.074;2023-09-18T02:48:27;11.82;;;9.80;;
44110;SDS011;29774;52.664;5.074;2023-09-18T02:50:53;11.18;;;8.98;;
44110;SDS011;29774;52.664;5.074;2023-09-18T02:53:22;11.30;;;8.73;;
44110;SDS011;29774;52.664;5.074;2023-09-18T02:55:49;10.80;;;9.70;;
44110;SDS011;29774;52.664;5.074;2023-09-18T02:58:16;11.00;;;9.90;;
44110;SDS011;29774;52.664;5.074;2023-09-18T03:00:43;10.60;;;9.40;;
44110;SDS011;29774;52.664;5.074;2023-09-18T03:03:09;13.07;;;10.02;;
44110;SDS011;29774;52.664;5.074;2023-09-18T03:05:36;11.13;;;9.05;;
44110;SDS011;29774;52.664;5.074;2023-09-18T03:08:02;11.15;;;10.00;;
44110;SDS011;29774;52.664;5.074;2023-09-18T03:10:32;10.27;;;9.25;;
44110;SDS011;29774;52.664;5.074;2023-09-18T03:13:01;13.35;;;10.02;;
44110;SDS011;29774;52.664;5.074;2023-09-18T03:15:27;11.80;;;10.25;;
44110;SDS011;29774;52.664;5.074;2023-09-18T03:17:53;13.43;;;9.95;;
44110;SDS011;29774;52.664;5.074;2023-09-18T03:20:22;11.20;;;9.88;;
44110;SDS011;29774;52.664;5.074;2023-09-18T03:22:49;13.80;;;10.68;;
44110;SDS011;29774;52.664;5.074;2023-09-18T03:25:15;14.20;;;10.90;;
44110;SDS011;29774;52.664;5.074;2023-09-18T03:27:41;13.32;;;10.82;;
44110;SDS011;29774;52.664;5.074;2023-09-18T03:30:07;14.10;;;11.10;;
44110;SDS011;29774;52.664;5.074;2023-09-18T03:32:33;13.50;;;10.85;;
44110;SDS011;29774;52.664;5.074;2023-09-18T03:34:59;12.13;;;10.52;;
44110;SDS011;29774;52.664;5.074;2023-09-18T03:37:24;13.57;;;10.80;;
44110;SDS011;29774;52.664;5.074;2023-09-18T03:39:50;12.23;;;10.32;;
44110;SDS011;29774;52.664;5.074;2023-09-18T03:42:15;12.13;;;10.45;;
44110;SDS011;29774;52.664;5.074;2023-09-18T03:44:41;11.73;;;10.13;;
44110;SDS011;29774;52.664;5.074;2023-09-18T03:47:07;16.38;;;11.00;;
44110;SDS011;29774;52.664;5.074;2023-09-18T03:49:32;12.32;;;10.88;;
44110;SDS011;29774;52.664;5.074;2023-09-18T03:51:58;12.40;;;10.43;;
44110;SDS011;29774;52.664;5.074;2023-09-18T03:54:23;11.73;;;9.98;;
44110;SDS011;29774;52.664;5.074;2023-09-18T03:56:49;13.07;;;10.77;;
44110;SDS011;29774;52.664;5.074;2023-09-18T03:59:14;9.80;;;8.63;;
44110;SDS011;29774;52.664;5.074;2023-09-18T04:01:40;13.02;;;9.82;;
44110;SDS011;29774;52.664;5.074;2023-09-18T04:04:06;12.13;;;10.23;;
44110;SDS011;29774;52.664;5.074;2023-09-18T04:06:42;12.55;;;9.88;;
44110;SDS011;29774;52.664;5.074;2023-09-18T04:09:09;11.48;;;9.48;;
44110;SDS011;29774;52.664;5.074;2023-09-18T04:11:35;12.00;;;9.57;;
44110;SDS011;29774;52.664;5.074;2023-09-18T04:14:01;10.20;;;9.05;;
44110;SDS011;29774;52.664;5.074;2023-09-18T04:16:28;10.05;;;9.02;;
44110;SDS011;29774;52.664;5.074;2023-09-18T04:18:55;12.30;;;9.65;;
44110;SDS011;29774;52.664;5.074;2023-09-18T04:21:21;11.00;;;9.43;;
44110;SDS011;29774;52.664;5.074;2023-09-18T04:23:47;11.38;;;9.43;;
44110;SDS011;29774;52.664;5.074;2023-09-18T04:26:13;8.98;;;8.07;;
44110;SDS011;29774;52.664;5.074;2023-09-18T04:28:45;10.63;;;9.48;;
44110;SDS011;29774;52.664;5.074;2023-09-18T04:31:10;12.80;;;7.78;;
44110;SDS011;29774;52.664;5.074;2023-09-18T04:33:37;8.35;;;7.43;;
44110;SDS011;29774;52.664;5.074;2023-09-18T04:36:02;8.18;;;7.18;;
44110;SDS011;29774;52.664;5.074;2023-09-18T04:38:28;9.68;;;8.35;;
44110;SDS011;29774;52.664;5.074;2023-09-18T04:40:57;13.15;;;7.93;;
44110;SDS011;29774;52.664;5.074;2023-09-18T04:43:24;10.38;;;7.82;;
44110;SDS011;29774;52.664;5.074;2023-09-18T04:45:50;6.95;;;6.05;;
44110;SDS011;29774;52.664;5.074;2023-09-18T04:48:16;7.93;;;6.50;;
44110;SDS011;29774;52.664;5.074;2023-09-18T04:50:42;8.95;;;6.60;;
44110;SDS011;29774;52.664;5.074;2023-09-18T04:53:08;11.30;;;8.32;;
44110;SDS011;29774;52.664;5.074;2023-09-18T04:55:34;9.73;;;7.40;;
44110;SDS011;29774;52.664;5.074;2023-09-18T04:58:00;8.50;;;6.50;;
44110;SDS011;29774;52.664;5.074;2023-09-18T05:00:25;8.73;;;5.47;;
44110;SDS011;29774;52.664;5.074;2023-09-18T05:02:52;11.07;;;4.70;;
44110;SDS011;29774;52.664;5.074;2023-09-18T05:05:18;8.25;;;4.22;;
44110;SDS011;29774;52.664;5.074;2023-09-18T05:07:44;7.40;;;2.67;;
44110;SDS011;29774;52.664;5.074;2023-09-18T05:10:10;5.95;;;3.00;;
44110;SDS011;29774;52.664;5.074;2023-09-18T05:12:38;6.93;;;3.05;;
44110;SDS011;29774;52.664;5.074;2023-09-18T05:15:05;3.90;;;3.33;;
44110;SDS011;29774;52.664;5.074;2023-09-18T05:17:44;7.03;;;3.38;;
44110;SDS011;29774;52.664;5.074;2023-09-18T05:20:17;7.95;;;3.50;;
44110;SDS011;29774;52.664;5.074;2023-09-18T05:22:43;5.60;;;2.85;;
44110;SDS011;29774;52.664;5.074;2023-09-18T05:25:10;3.55;;;2.50;;
44110;SDS011;29774;52.664;5.074;2023-09-18T05:27:36;3.25;;;1.95;;
44110;SDS011;29774;52.664;5.074;2023-09-18T05:30:09;5.78;;;2.83;;
44110;SDS011;29774;52.664;5.074;2023-09-18T05:32:35;3.63;;;2.47;;
44110;SDS011;29774;52.664;5.074;2023-09-18T05:35:01;4.88;;;2.05;;
44110;SDS011;29774;52.664;5.074;2023-09-18T05:37:31;4.57;;;2.15;;
44110;SDS011;29774;52.664;5.074;2023-09-18T05:39:57;5.38;;;2.00;;
44110;SDS011;29774;52.664;5.074;2023-09-18T05:42:22;5.93;;;2.22;;
44110;SDS011;29774;52.664;5.074;2023-09-18T05:44:48;3.88;;;2.08;;
44110;SDS011;29774;52.664;5.074;2023-09-18T05:47:13;3.38;;;1.85;;
44110;SDS011;29774;52.664;5.074;2023-09-18T05:49:39;4.78;;;2.53;;
44110;SDS011;29774;52.664;5.074;2023-09-18T05:52:05;3.47;;;2.13;;
44110;SDS011;29774;52.664;5.074;2023-09-18T05:54:30;2.13;;;1.90;;
44110;SDS011;29774;52.664;5.074;2023-09-18T05:56:56;4.45;;;2.55;;
44110;SDS011;29774;52.664;5.074;2023-09-18T05:59:21;3.95;;;2.58;;
44110;SDS011;29774;52.664;5.074;2023-09-18T06:01:47;5.38;;;2.60;;
44110;SDS011;29774;52.664;5.074;2023-09-18T06:04:14;5.50;;;2.53;;
44110;SDS011;29774;52.664;5.074;2023-09-18T06:06:41;4.47;;;2.47;;
44110;SDS011;29774;52.664;5.074;2023-09-18T06:09:07;4.35;;;2.50;;
44110;SDS011;29774;52.664;5.074;2023-09-18T06:11:33;5.50;;;2.30;;
44110;SDS011;29774;52.664;5.074;2023-09-18T06:13:58;3.90;;;2.67;;
44110;SDS011;29774;52.664;5.074;2023-09-18T06:16:24;5.63;;;2.40;;
44110;SDS011;29774;52.664;5.074;2023-09-18T06:18:50;3.72;;;2.65;;
44110;SDS011;29774;52.664;5.074;2023-09-18T06:21:15;3.25;;;2.92;;
44110;SDS011;29774;52.664;5.074;2023-09-18T06:23:41;4.20;;;3.00;;
44110;SDS011;29774;52.664;5.074;2023-09-18T06:26:07;4.20;;;2.88;;
44110;SDS011;29774;52.664;5.074;2023-09-18T06:28:32;4.25;;;3.05;;
44110;SDS011;29774;52.664;5.074;2023-09-18T06:30:58;5.30;;;3.58;;
44110;SDS011;29774;52.664;5.074;2023-09-18T06:33:23;4.20;;;3.00;;
44110;SDS011;29774;52.664;5.074;2023-09-18T06:35:49;5.72;;;3.85;;
44110;SDS011;29774;52.664;5.074;2023-09-18T06:38:16;5.43;;;3.90;;
44110;SDS011;29774;52.664;5.074;2023-09-18T06:40:42;8.23;;;4.30;;
44110;SDS011;29774;52.664;5.074;2023-09-18T06:43:08;8.77;;;4.35;;
44110;SDS011;29774;52.664;5.074;2023-09-18T06:45:33;7.15;;;4.57;;
44110;SDS011;29774;52.664;5.074;2023-09-18T06:47:59;9.32;;;4.80;;
44110;SDS011;29774;52.664;5.074;2023-09-18T06:50:28;9.68;;;5.30;;
44110;SDS011;29774;52.664;5.074;2023-09-18T06:52:54;6.65;;;4.68;;
44110;SDS011;29774;52.664;5.074;2023-09-18T06:55:19;9.73;;;5.43;;
44110;SDS011;29774;52.664;5.074;2023-09-18T06:57:45;7.03;;;5.00;;
44110;SDS011;29774;52.664;5.074;2023-09-18T07:00:12;8.65;;;5.85;;
44110;SDS011;29774;52.664;5.074;2023-09-18T07:02:40;10.13;;;6.15;;
44110;SDS011;29774;52.664;5.074;2023-09-18T07:05:05;7.25;;;5.30;;
44110;SDS011;29774;52.664;5.074;2023-09-18T07:07:31;7.28;;;5.53;;
44110;SDS011;29774;52.664;5.074;2023-09-18T07:09:57;6.45;;;4.80;;
44110;SDS011;29774;52.664;5.074;2023-09-18T07:12:23;9.65;;;5.43;;
44110;SDS011;29774;52.664;5.074;2023-09-18T07:14:48;9.35;;;5.60;;
44110;SDS011;29774;52.664;5.074;2023-09-18T07:17:14;5.18;;;3.83;;
44110;SDS011;29774;52.664;5.074;2023-09-18T07:19:40;6.95;;;5.25;;
44110;SDS011;29774;52.664;5.074;2023-09-18T07:22:06;9.82;;;5.28;;
44110;SDS011;29774;52.664;5.074;2023-09-18T07:24:31;6.20;;;5.32;;
44110;SDS011;29774;52.664;5.074;2023-09-18T07:26:57;7.22;;;5.00;;
44110;SDS011;29774;52.664;5.074;2023-09-18T07:29:23;10.55;;;6.53;;
44110;SDS011;29774;52.664;5.074;2023-09-18T07:31:50;10.15;;;5.90;;
44110;SDS011;29774;52.664;5.074;2023-09-18T07:34:16;7.45;;;6.30;;
44110;SDS011;29774;52.664;5.074;2023-09-18T07:36:42;6.97;;;5.95;;
44110;SDS011;29774;52.664;5.074;2023-09-18T07:39:09;7.03;;;5.70;;
44110;SDS011;29774;52.664;5.074;2023-09-18T07:41:36;9.00;;;6.32;;
44110;SDS011;29774;52.664;5.074;2023-09-18T07:44:02;9.68;;;6.55;;
44110;SDS011;29774;52.664;5.074;2023-09-18T07:46:28;10.43;;;6.68;;
44110;SDS011;29774;52.664;5.074;2023-09-18T07:48:54;7.75;;;6.70;;
44110;SDS011;29774;52.664;5.074;2023-09-18T07:51:20;9.25;;;6.47;;
44110;SDS011;29774;52.664;5.074;2023-09-18T07:53:46;8.25;;;6.07;;
44110;SDS011;29774;52.664;5.074;2023-09-18T07:56:12;11.65;;;7.78;;
44110;SDS011;29774;52.664;5.074;2023-09-18T07:58:38;10.63;;;7.22;;
44110;SDS011;29774;52.664;5.074;2023-09-18T08:01:06;8.55;;;7.70;;
44110;SDS011;29774;52.664;5.074;2023-09-18T08:03:34;9.45;;;7.63;;
44110;SDS011;29774;52.664;5.074;2023-09-18T08:05:59;11.43;;;8.35;;
44110;SDS011;29774;52.664;5.074;2023-09-18T08:08:25;9.32;;;7.85;;
44110;SDS011;29774;52.664;5.074;2023-09-18T08:10:51;8.80;;;6.55;;
44110;SDS011;29774;52.664;5.074;2023-09-18T08:13:17;9.25;;;6.32;;
44110;SDS011;29774;52.664;5.074;2023-09-18T08:15:43;9.35;;;6.70;;
44110;SDS011;29774;52.664;5.074;2023-09-18T08:18:09;6.85;;;5.60;;
44110;SDS011;29774;52.664;5.074;2023-09-18T08:20:41;5.45;;;4.60;;
44110;SDS011;29774;52.664;5.074;2023-09-18T08:23:08;7.53;;;5.40;;
44110;SDS011;29774;52.664;5.074;2023-09-18T08:25:37;7.82;;;5.88;;
44110;SDS011;29774;52.664;5.074;2023-09-18T08:28:03;6.40;;;5.13;;
44110;SDS011;29774;52.664;5.074;2023-09-18T08:30:29;7.78;;;5.15;;
44110;SDS011;29774;52.664;5.074;2023-09-18T08:32:55;7.15;;;5.57;;
44110;SDS011;29774;52.664;5.074;2023-09-18T08:35:21;6.63;;;5.78;;
44110;SDS011;29774;52.664;5.074;2023-09-18T08:37:47;7.80;;;6.57;;
44110;SDS011;29774;52.664;5.074;2023-09-18T08:40:13;8.38;;;6.90;;
44110;SDS011;29774;52.664;5.074;2023-09-18T08:42:41;7.65;;;5.45;;
44110;SDS011;29774;52.664;5.074;2023-09-18T08:45:10;8.88;;;5.90;;
44110;SDS011;29774;52.664;5.074;2023-09-18T08:47:50;12.75;;;6.65;;
44110;SDS011;29774;52.664;5.074;2023-09-18T08:50:18;7.90;;;5.70;;
44110;SDS011;29774;52.664;5.074;2023-09-18T08:52:45;5.38;;;4.78;;
44110;SDS011;29774;52.664;5.074;2023-09-18T08:55:12;5.38;;;4.43;;
44110;SDS011;29774;52.664;5.074;2023-09-18T08:57:38;6.15;;;4.78;;
44110;SDS011;29774;52.664;5.074;2023-09-18T09:00:07;6.75;;;4.75;;
44110;SDS011;29774;52.664;5.074;2023-09-18T09:02:34;9.25;;;6.57;;
44110;SDS011;29774;52.664;5.074;2023-09-18T09:05:00;8.02;;;4.82;;
44110;SDS011;29774;52.664;5.074;2023-09-18T09:07:26;5.40;;;3.88;;
44110;SDS011;29774;52.664;5.074;2023-09-18T09:09:53;6.32;;;4.20;;
44110;SDS011;29774;52.664;5.074;2023-09-18T09:15:21;5.25;;;4.68;;
44110;SDS011;29774;52.664;5.074;2023-09-18T09:17:51;4.85;;;3.70;;
44110;SDS011;29774;52.664;5.074;2023-09-18T09:20:26;5.05;;;3.67;;
44110;SDS011;29774;52.664;5.074;2023-09-18T09:22:52;4.85;;;3.47;;
44110;SDS011;29774;52.664;5.074;2023-09-18T09:25:29;6.47;;;3.25;;
44110;SDS011;29774;52.664;5.074;2023-09-18T09:27:57;3.20;;;2.70;;
44110;SDS011;29774;52.664;5.074;2023-09-18T09:30:25;4.05;;;2.58;;
44110;SDS011;29774;52.664;5.074;2023-09-18T09:32:53;4.90;;;2.40;;
44110;SDS011;29774;52.664;5.074;2023-09-18T09:37:52;3.70;;;2.05;;
44110;SDS011;29774;52.664;5.074;2023-09-18T09:40:20;4.70;;;2.13;;
44110;SDS011;29774;52.664;5.074;2023-09-18T09:42:47;3.40;;;2.22;;
44110;SDS011;29774;52.664;5.074;2023-09-18T09:45:13;4.88;;;2.15;;
44110;SDS011;29774;52.664;5.074;2023-09-18T09:47:43;3.60;;;2.30;;
44110;SDS011;29774;52.664;5.074;2023-09-18T09:50:10;6.88;;;2.00;;
44110;SDS011;29774;52.664;5.074;2023-09-18T09:52:45;2.63;;;2.05;;
44110;SDS011;29774;52.664;5.074;2023-09-18T09:55:32;5.00;;;1.75;;
44110;SDS011;29774;52.664;5.074;2023-09-18T09:58:04;1.52;;;1.42;;
44110;SDS011;29774;52.664;5.074;2023-09-18T10:00:32;2.35;;;1.58;;
44110;SDS011;29774;52.664;5.074;2023-09-18T10:03:06;3.53;;;1.70;;
44110;SDS011;29774;52.664;5.074;2023-09-18T10:05:35;2.67;;;1.60;;
44110;SDS011;29774;52.664;5.074;2023-09-18T10:08:03;1.67;;;1.33;;
44110;SDS011;29774;52.664;5.074;2023-09-18T10:10:38;2.22;;;1.65;;
44110;SDS011;29774;52.664;5.074;2023-09-18T10:13:27;1.70;;;1.33;;
44110;SDS011;29774;52.664;5.074;2023-09-18T10:16:00;2.22;;;1.40;;
44110;SDS011;29774;52.664;5.074;2023-09-18T10:18:37;2.65;;;1.67;;
44110;SDS011;29774;52.664;5.074;2023-09-18T10:21:20;4.03;;;1.98;;
44110;SDS011;29774;52.664;5.074;2023-09-18T10:24:03;2.22;;;1.40;;
44110;SDS011;29774;52.664;5.074;2023-09-18T10:26:30;1.75;;;1.40;;
44110;SDS011;29774;52.664;5.074;2023-09-18T10:29:03;1.67;;;1.55;;
44110;SDS011;29774;52.664;5.074;2023-09-18T10:31:30;2.25;;;1.40;;
44110;SDS011;29774;52.664;5.074;2023-09-18T10:33:59;2.05;;;1.40;;
44110;SDS011;29774;52.664;5.074;2023-09-18T10:36:28;3.20;;;1.20;;
44110;SDS011;29774;52.664;5.074;2023-09-18T10:38:55;4.93;;;2.30;;
44110;SDS011;29774;52.664;5.074;2023-09-18T10:41:23;4.03;;;1.65;;
44110;SDS011;29774;52.664;5.074;2023-09-18T10:43:52;2.10;;;1.50;;
44110;SDS011;29774;52.664;5.074;2023-09-18T10:46:19;3.63;;;1.80;;
44110;SDS011;29774;52.664;5.074;2023-09-18T10:48:45;5.60;;;2.03;;
44110;SDS011;29774;52.664;5.074;2023-09-18T10:51:11;2.53;;;1.60;;
44110;SDS011;29774;52.664;5.074;2023-09-18T10:53:39;3.33;;;1.80;;
44110;SDS011;29774;52.664;5.074;2023-09-18T10:56:05;2.72;;;1.33;;
44110;SDS011;29774;52.664;5.074;2023-09-18T10:58:31;1.20;;;1.10;;
44110;SDS011;29774;52.664;5.074;2023-09-18T11:01:00;1.55;;;1.20;;
44110;SDS011;29774;52.664;5.074;2023-09-18T11:03:27;1.65;;;1.27;;
44110;SDS011;29774;52.664;5.074;2023-09-18T11:06:10;2.42;;;1.40;;
44110;SDS011;29774;52.664;5.074;2023-09-18T11:08:44;2.47;;;1.60;;
44110;SDS011;29774;52.664;5.074;2023-09-18T11:11:12;3.33;;;1.88;;
44110;SDS011;29774;52.664;5.074;2023-09-18T11:21:25;3.13;;;1.35;;
44110;SDS011;29774;52.664;5.074;2023-09-18T11:23:57;1.65;;;1.40;;
44110;SDS011;29774;52.664;5.074;2023-09-18T11:26:39;1.35;;;1.25;;
44110;SDS011;29774;52.664;5.074;2023-09-18T11:29:08;1.70;;;1.35;;
44110;SDS011;29774;52.664;5.074;2023-09-18T11:34:28;1.77;;;1.55;;
44110;SDS011;29774;52.664;5.074;2023-09-18T11:36:56;3.20;;;2.00;;
44110;SDS011;29774;52.664;5.074;2023-09-18T11:39:32;2.55;;;1.73;;
44110;SDS011;29774;52.664;5.074;2023-09-18T11:42:13;2.13;;;1.50;;
44110;SDS011;29774;52.664;5.074;2023-09-18T11:44:44;1.40;;;1.30;;
44110;SDS011;29774;52.664;5.074;2023-09-18T11:47:13;3.00;;;1.75;;
44110;SDS011;29774;52.664;5.074;2023-09-18T11:49:48;2.45;;;2.13;;
44110;SDS011;29774;52.664;5.074;2023-09-18T11:52:23;2.72;;;1.63;;
44110;SDS011;29774;52.664;5.074;2023-09-18T11:54:49;2.03;;;1.20;;
44110;SDS011;29774;52.664;5.074;2023-09-18T11:57:17;1.45;;;1.35;;
44110;SDS011;29774;52.664;5.074;2023-09-18T11:59:44;4.35;;;1.90;;
44110;SDS011;29774;52.664;5.074;2023-09-18T12:02:11;1.77;;;1.50;;
44110;SDS011;29774;52.664;5.074;2023-09-18T12:04:45;3.03;;;2.10;;
44110;SDS011;29774;52.664;5.074;2023-09-18T12:07:12;2.55;;;1.70;;
44110;SDS011;29774;52.664;5.074;2023-09-18T12:09:38;2.75;;;1.42;;
44110;SDS011;29774;52.664;5.074;2023-09-18T12:12:08;4.63;;;2.00;;
44110;SDS011;29774;52.664;5.074;2023-09-18T12:14:35;2.20;;;1.90;;
44110;SDS011;29774;52.664;5.074;2023-09-18T12:17:02;3.28;;;2.03;;
44110;SDS011;29774;52.664;5.074;2023-09-18T12:19:29;2.83;;;1.60;;
44110;SDS011;29774;52.664;5.074;2023-09-18T12:21:55;3.95;;;1.80;;
44110;SDS011;29774;52.664;5.074;2023-09-18T12:24:24;3.22;;;2.25;;
44110;SDS011;29774;52.664;5.074;2023-09-18T12:26:51;2.05;;;1.80;;
44110;SDS011;29774;52.664;5.074;2023-09-18T12:29:18;3.00;;;2.13;;
44110;SDS011;29774;52.664;5.074;2023-09-18T12:31:48;3.08;;;1.90;;
44110;SDS011;29774;52.664;5.074;2023-09-18T12:34:16;5.60;;;2.30;;
44110;SDS011;29774;52.664;5.074;2023-09-18T12:36:43;3.83;;;1.63;;
44110;SDS011;29774;52.664;5.074;2023-09-18T12:39:12;4.55;;;2.30;;
44110;SDS011;29774;52.664;5.074;2023-09-18T12:41:41;4.15;;;2.40;;
44110;SDS011;29774;52.664;5.074;2023-09-18T12:44:09;4.50;;;1.80;;
44110;SDS011;29774;52.664;5.074;2023-09-18T12:46:35;4.57;;;1.70;;
44110;SDS011;29774;52.664;5.074;2023-09-18T12:51:58;3.00;;;1.70;;
44110;SDS011;29774;52.664;5.074;2023-09-18T12:57:07;2.50;;;2.10;;
44110;SDS011;29774;52.664;5.074;2023-09-18T12:59:34;2.20;;;1.83;;
44110;SDS011;29774;52.664;5.074;2023-09-18T13:02:04;3.63;;;2.00;;
44110;SDS011;29774;52.664;5.074;2023-09-18T13:04:31;2.05;;;1.40;;
44110;SDS011;29774;52.664;5.074;2023-09-18T13:07:14;2.55;;;1.45;;
44110;SDS011;29774;52.664;5.074;2023-09-18T13:09:40;2.20;;;1.40;;
44110;SDS011;29774;52.664;5.074;2023-09-18T13:12:06;1.58;;;1.48;;
44110;SDS011;29774;52.664;5.074;2023-09-18T13:17:39;5.38;;;2.15;;
44110;SDS011;29774;52.664;5.074;2023-09-18T13:20:20;3.90;;;2.03;;
44110;SDS011;29774;52.664;5.074;2023-09-18T13:22:52;2.60;;;2.00;;
44110;SDS011;29774;52.664;5.074;2023-09-18T13:25:28;3.05;;;2.30;;
44110;SDS011;29774;52.664;5.074;2023-09-18T13:27:58;3.30;;;2.08;;
44110;SDS011;29774;52.664;5.074;2023-09-18T13:30:24;3.28;;;2.75;;
44110;SDS011;29774;52.664;5.074;2023-09-18T13:32:50;4.13;;;2.50;;
44110;SDS011;29774;52.664;5.074;2023-09-18T13:35:16;3.25;;;2.25;;
44110;SDS011;29774;52.664;5.074;2023-09-18T13:37:43;3.05;;;1.63;;
44110;SDS011;29774;52.664;5.074;2023-09-18T13:40:10;2.58;;;2.35;;
44110;SDS011;29774;52.664;5.074;2023-09-18T13:42:37;4.28;;;2.65;;
44110;SDS011;29774;52.664;5.074;2023-09-18T13:45:03;1.77;;;1.67;;
44110;SDS011;29774;52.664;5.074;2023-09-18T13:47:31;3.50;;;1.60;;
44110;SDS011;29774;52.664;5.074;2023-09-18T13:49:58;1.92;;;1.80;;
44110;SDS011;29774;52.664;5.074;2023-09-18T13:52:28;2.35;;;1.33;;
44110;SDS011;29774;52.664;5.074;2023-09-18T13:54:54;3.03;;;2.47;;
44110;SDS011;29774;52.664;5.074;2023-09-18T13:57:21;2.78;;;1.60;;
44110;SDS011;29774;52.664;5.074;2023-09-18T13:59:48;1.70;;;1.60;;
44110;SDS011;29774;52.664;5.074;2023-09-18T14:02:14;2.03;;;1.83;;
44110;SDS011;29774;52.664;5.074;2023-09-18T14:04:41;2.55;;;1.55;;
44110;SDS011;29774;52.664;5.074;2023-09-18T14:07:07;3.03;;;1.67;;
44110;SDS011;29774;52.664;5.074;2023-09-18T14:09:34;1.73;;;1.60;;
44110;SDS011;29774;52.664;5.074;2023-09-18T14:12:00;4.18;;;2.50;;
44110;SDS011;29774;52.664;5.074;2023-09-18T14:14:26;2.15;;;1.95;;
44110;SDS011;29774;52.664;5.074;2023-09-18T14:16:52;3.40;;;2.20;;
44110;SDS011;29774;52.664;5.074;2023-09-18T14:19:18;4.30;;;2.05;;
44110;SDS011;29774;52.664;5.074;2023-09-18T14:21:44;4.28;;;1.80;;
44110;SDS011;29774;52.664;5.074;2023-09-18T14:24:10;3.40;;;2.40;;
44110;SDS011;29774;52.664;5.074;2023-09-18T14:26:36;3.20;;;2.30;;
44110;SDS011;29774;52.664;5.074;2023-09-18T14:29:06;3.38;;;2.25;;
44110;SDS011;29774;52.664;5.074;2023-09-18T14:31:33;2.95;;;1.92;;
44110;SDS011;29774;52.664;5.074;2023-09-18T14:33:59;2.55;;;2.05;;
44110;SDS011;29774;52.664;5.074;2023-09-18T14:36:25;3.35;;;2.10;;
44110;SDS011;29774;52.664;5.074;2023-09-18T14:38:51;2.45;;;2.25;;
44110;SDS011;29774;52.664;5.074;2023-09-18T14:41:17;3.13;;;2.03;;
44110;SDS011;29774;52.664;5.074;2023-09-18T14:43:44;3.03;;;1.80;;
44110;SDS011;29774;52.664;5.074;2023-09-18T14:46:10;3.08;;;2.10;;
44110;SDS011;29774;52.664;5.074;2023-09-18T14:48:36;2.53;;;2.03;;
44110;SDS011;29774;52.664;5.074;2023-09-18T14:51:01;4.18;;;2.10;;
44110;SDS011;29774;52.664;5.074;2023-09-18T14:53:27;2.90;;;2.58;;
44110;SDS011;29774;52.664;5.074;2023-09-18T14:55:53;2.17;;;1.98;;
44110;SDS011;29774;52.664;5.074;2023-09-18T14:58:20;3.97;;;2.65;;
44110;SDS011;29774;52.664;5.074;2023-09-18T15:00:48;5.28;;;2.50;;
44110;SDS011;29774;52.664;5.074;2023-09-18T15:03:14;4.05;;;3.10;;
44110;SDS011;29774;52.664;5.074;2023-09-18T15:05:40;2.67;;;1.95;;
44110;SDS011;29774;52.664;5.074;2023-09-18T15:08:06;3.35;;;2.72;;
44110;SDS011;29774;52.664;5.074;2023-09-18T15:10:32;4.82;;;2.60;;
44110;SDS011;29774;52.664;5.074;2023-09-18T15:12:58;3.55;;;2.90;;
44110;SDS011;29774;52.664;5.074;2023-09-18T15:15:24;6.65;;;2.72;;